Cheney, Ontario

7:52 PM EST on February 20, 2019 (GMT -0500)
Hammond | | Change Station
Active Advisory: Special Weather Statement

Elev 236 ft 45.43 °N, 75.26 °W | Updated 7 seconds ago

Overcast
Overcast
16.3 °F
Feels Like 16 °F
N
1
Wind Variable Wind from SSE
Gusts 5.0 mph

Today
High -- | Low -- °F
--% Chance of Precip.
Yesterday
High -- | Low -- °F
Precip. -- in
Pressure 30.23 in
Visibility 15.0 miles
Clouds Overcast 8000 ft
Windchill 16 °F
Dew Point 10 °F
Humidity 74%
Rainfall 0.00 in
Snow Depth Not available.
6:55 AM 5:35 PM
Full, 97% visible
METAR CYND 210000Z 08011KT 15SM OVC080 M09/M15 A3020 RMK AC8 PRESFR SLP235
Pressure 30.23 in
Visibility 15.0 miles
Clouds Overcast 8000 ft
Windchill 16 °F
Dew Point 10 °F
Humidity 74%
Rainfall 0.00 in
Snow Depth Not available.
6:55 AM 5:35 PM
Full, 97% visible
METAR CYND 210000Z 08011KT 15SM OVC080 M09/M15 A3020 RMK AC8 PRESFR SLP235

Get Severe Weather Alerts

Thanks for signing up!

Be on the lookout for a verification email in your inbox.

You'll start receiving the daily forecast at 6 AM.

×

10-Day Weather Forecast

Almanac

Astronomy

Feb. 20, 2019 Rise Set
Actual Time
Civil Twilight
Nautical Twilight
Astronomical Twilight
Moon
Length of Visible Light
Length of Day
Tomorrow will be .
, % of the Moon is Illuminated

Today's Extremes

Country Highs Country Lows

Community

WunderPhotos

Category 6

Welcome to Category 6. This is the collective home for Weather Underground's featured writeups by Dr. Jeff Masters (right), Bob Henson (left), Chris Burt, and other regular contributors.

Nearby

Air Quality

  Air Quality AQ Index Pollutant
Not available.

Snow Depth

Station Depth Elevation

Earthquake Activity

City Distance Mag. Time & Date
Minimum magnitude displayed is 2.5.

Coastal Water Temperatures

Place Temperature

Stations

Nearby Weather Stations

Station Location Temp. Windchill Dew Point Humidity Wind Precip. Elev Updated Type
                   

Watches & Warnings

Special Weather Statement
Issued: Environment Canada
Special Weather Statement issued by Environment.  10:27 AM EST Wednesday 20 February 2019.
Snow amounts of 5 to 10 centimetres tonight with risk of freezing rain early Thursday.

Snow will begin this evening, then mix with or change to ice pellets overnight. Snow and ice pellet amounts of 5 to 10 centimetres are expected. There is the also the slight risk of freezing rain early Thursday.

Untreated surfaces may become icy and slippery. Travel may be affected.

This wintry mix of precipitation is associated with a Colorado low that will track over the area tonight.

###

Please continue to monitor alerts and forecasts issued by Environment Canada. To report severe weather, send an email to ONstorm@canada.ca or tweet reports using #ONStorm.
expires_epoch:1550723179